Airfield :
LOGIN :

Register | Disclaimer

   EN    FR    IT 

 










Legend :    VFR   Marginal VFR   IFR   Intensive IFR   Very Intensive IFR
Visi :
Ceiling :
>= 8 km
>= 3000ft
5 to 8 km
1000 to 3000 ft
1500m to 5 km
500 to 1000 ft
800 to 1500m
200 to 500 ft
< 800m
< 200 ft
Symbols :   Thunderstorms  Fog  Heavy snow  Heavy precipitations  Wind > 20 kt
SIGMETs :     Misc.  Thunderstorms  Icing  Turbulence  Mountain Waves  Volcanic Ashes







- Airport Elevation : 45 ft
- IATA code : CEG
- Download approach charts


EGNR - Hawarden Chester

CURRENT METAR :
  • 240750Z 14005KT 8000 NSC 10/08 Q0992

EXPIRED METARs :
  • 240720Z 15006KT 7000 NSC 10/07 Q0992
  • 240650Z 14005KT 7000 NSC 09/07 Q0993
  • 240620Z 13004KT 7000 NSC 09/07 Q0993
  • 240550Z 11006KT 7000 NSC 08/07 Q0993
  • 240520Z 13006KT 7000 NSC 08/06 Q0993

TAF TAF EGNR
Valid from the 24 at 06:00 until the 24 at 15:00 UTC


240534Z 2406/2415 13007KT 7000 NSC
BECMG 2409/2412 9999
TEMPO 2412/2415 6000 SHRA
PROB40
TEMPO 2413/2415 3000 +SHRA TSGR BKN014 BKN025CB
No reported NOTAMs for that airfield.



MET'MAP, your aeronautical weather chart ! - Copyright ORBIFLY December 2007 - Disclaimer

ORBIFLY MET'MAP TEAM :

Programming & Development : Alexandra Zaïnal
Concept & Development : Baudouin d'Aumeries
Co-Development & Prog : Marc-Olivier Méhu
Technical & hardware support : Manuel Goepfert

Contact : metmap@orbifly.com




SOURCES & CREDITS :

   NOAA